Time;durP1;ratioP1;P1;durP2;ratioP2;P2;SDS_P1;SDS_P2;PMS_P1;PMS_P2;Temp;Humidity;BMP_temperature;BMP_pressure;BME280_temperature;BME280_humidity;BME280_pressure;Samples;Min_cycle;Max_cycle;Signal;HPM_P1;HPM_P2
2021/09/22 00:01:03;;;;;;;18.80;12.70;;;;;;;;;;5014813;28;20520;-63
2021/09/22 00:03:29;;;;;;;16.37;11.13;;;;;;;;;;5012725;28;20458;-62
2021/09/22 00:05:55;;;;;;;16.30;10.93;;;;;;;;;;5014598;28;20908;-62
2021/09/22 00:08:21;;;;;;;16.47;11.50;;;;;;;;;;5013321;28;20430;-63
2021/09/22 00:10:47;;;;;;;15.27;11.93;;;;;;;;;;5014569;28;20510;-63
2021/09/22 00:13:13;;;;;;;18.10;12.20;;;;;;;;;;5012157;28;20423;-63
2021/09/22 00:15:40;;;;;;;18.40;12.57;;;;;;;;;;5013245;28;20441;-63
2021/09/22 00:18:06;;;;;;;26.00;12.97;;;;;;;;;;5013728;28;20483;-62
2021/09/22 00:20:32;;;;;;;19.10;12.80;;;;;;;;;;5014692;28;20420;-63
2021/09/22 00:22:58;;;;;;;17.33;12.20;;;;;;;;;;5013560;28;20400;-63
2021/09/22 00:25:27;;;;;;;16.93;12.57;;;;;;;;;;5014083;28;20395;-61
2021/09/22 00:27:53;;;;;;;18.87;13.10;;;;;;;;;;5013791;28;20404;-64
2021/09/22 00:30:20;;;;;;;18.13;12.73;;;;;;;;;;5014146;28;20419;-63
2021/09/22 00:32:47;;;;;;;16.23;12.53;;;;;;;;;;5012765;28;20442;-62
2021/09/22 00:35:13;;;;;;;18.73;12.67;;;;;;;;;;5000764;28;20439;-63
2021/09/22 00:37:39;;;;;;;20.27;13.10;;;;;;;;;;4994449;28;20774;-62
2021/09/22 00:40:06;;;;;;;21.50;12.90;;;;;;;;;;5011405;28;20779;-62
2021/09/22 00:42:32;;;;;;;17.30;13.43;;;;;;;;;;5011977;28;20446;-63
2021/09/22 00:44:59;;;;;;;20.27;12.20;;;;;;;;;;5012843;28;20473;-63
2021/09/22 00:47:26;;;;;;;18.40;12.37;;;;;;;;;;5017507;28;20443;-62
2021/09/22 00:49:53;;;;;;;19.87;13.03;;;;;;;;;;5016570;28;20845;-62
2021/09/22 00:52:20;;;;;;;18.17;12.87;;;;;;;;;;5017433;28;20467;-62
2021/09/22 00:54:46;;;;;;;18.63;13.47;;;;;;;;;;5016615;28;20534;-62
2021/09/22 00:57:13;;;;;;;21.33;14.53;;;;;;;;;;5018424;28;20462;-62
2021/09/22 00:59:39;;;;;;;16.27;12.00;;;;;;;;;;5017030;28;20944;-62
2021/09/22 01:02:05;;;;;;;18.33;12.23;;;;;;;;;;5017953;28;20916;-62
2021/09/22 01:04:32;;;;;;;18.07;12.73;;;;;;;;;;5016284;28;20514;-62
2021/09/22 01:06:58;;;;;;;16.40;12.17;;;;;;;;;;5016944;28;20415;-63
2021/09/22 01:09:24;;;;;;;23.97;13.57;;;;;;;;;;5019154;28;20467;-63
2021/09/22 01:11:50;;;;;;;15.50;12.30;;;;;;;;;;5019993;28;20424;-63
2021/09/22 01:14:20;;;;;;;14.50;11.70;;;;;;;;;;5019173;28;20747;-63
2021/09/22 01:16:46;;;;;;;16.30;11.77;;;;;;;;;;5018665;28;20920;-63
2021/09/22 01:19:12;;;;;;;15.03;10.83;;;;;;;;;;5010625;28;20907;-63
2021/09/22 01:21:42;;;;;;;17.00;12.13;;;;;;;;;;5000758;28;20921;-63
2021/09/22 01:24:08;;;;;;;17.23;10.90;;;;;;;;;;5002086;28;20420;-63
2021/09/22 01:26:34;;;;;;;20.23;13.53;;;;;;;;;;5019609;28;20495;-64
2021/09/22 01:29:01;;;;;;;14.07;11.13;;;;;;;;;;5017946;28;20407;-64
2021/09/22 01:31:27;;;;;;;14.83;11.87;;;;;;;;;;5019198;28;20901;-64
2021/09/22 01:33:53;;;;;;;13.57;10.10;;;;;;;;;;5017020;28;20412;-64
2021/09/22 01:36:19;;;;;;;19.47;12.57;;;;;;;;;;5000064;28;20487;-64
2021/09/22 01:38:46;;;;;;;15.83;11.80;;;;;;;;;;4999130;28;20452;-64
2021/09/22 01:41:13;;;;;;;15.73;10.70;;;;;;;;;;5018034;28;20455;-64
2021/09/22 01:43:39;;;;;;;12.73;11.07;;;;;;;;;;5017701;28;20434;-64
2021/09/22 01:46:07;;;;;;;15.53;12.23;;;;;;;;;;5018141;28;20502;-63
2021/09/22 01:48:33;;;;;;;14.30;11.07;;;;;;;;;;5018036;28;20950;-64
2021/09/22 01:51:02;;;;;;;14.70;11.40;;;;;;;;;;5016643;28;20455;-65
2021/09/22 01:53:29;;;;;;;13.90;10.60;;;;;;;;;;5017977;28;20462;-64
2021/09/22 01:55:56;;;;;;;19.03;12.47;;;;;;;;;;5001083;28;20520;-64
2021/09/22 01:58:23;;;;;;;16.50;11.93;;;;;;;;;;4997767;28;20558;-64
2021/09/22 02:00:50;;;;;;;16.90;11.93;;;;;;;;;;5012636;28;20485;-64
2021/09/22 02:03:16;;;;;;;17.70;12.50;;;;;;;;;;5003660;28;20424;-64
2021/09/22 02:05:46;;;;;;;16.67;11.87;;;;;;;;;;4997613;28;20493;-64
2021/09/22 02:08:12;;;;;;;15.40;11.60;;;;;;;;;;4997915;28;20466;-64
2021/09/22 02:10:38;;;;;;;18.03;12.43;;;;;;;;;;5004779;28;20510;-64
2021/09/22 02:13:04;;;;;;;18.03;12.07;;;;;;;;;;5017210;28;20412;-64
2021/09/22 02:15:30;;;;;;;19.40;12.83;;;;;;;;;;5016281;28;20439;-64
2021/09/22 02:17:56;;;;;;;17.63;12.00;;;;;;;;;;5016753;28;20446;-64
2021/09/22 02:20:22;;;;;;;16.43;11.80;;;;;;;;;;5015629;28;20432;-64
2021/09/22 02:22:48;;;;;;;17.53;11.43;;;;;;;;;;5016276;28;20416;-64
2021/09/22 02:25:14;;;;;;;16.60;11.60;;;;;;;;;;5014066;28;20431;-64
2021/09/22 02:27:41;;;;;;;13.07;10.70;;;;;;;;;;5016277;28;20439;-63
2021/09/22 02:30:09;;;;;;;18.67;10.80;;;;;;;;;;5015537;28;20424;-64
2021/09/22 02:32:36;;;;;;;19.87;12.07;;;;;;;;;;5016537;28;20924;-64
2021/09/22 02:35:02;;;;;;;16.10;10.70;;;;;;;;;;5013384;28;20424;-63
2021/09/22 02:37:28;;;;;;;17.13;10.40;;;;;;;;;;5015969;28;20400;-64
2021/09/22 02:39:55;;;;;;;15.83;11.13;;;;;;;;;;5015313;28;20459;-64
2021/09/22 02:42:22;;;;;;;22.27;12.47;;;;;;;;;;5015961;28;20439;-64
2021/09/22 02:44:48;;;;;;;15.27;12.00;;;;;;;;;;5015053;28;20412;-64
2021/09/22 02:47:14;;;;;;;16.60;11.40;;;;;;;;;;5015753;28;20399;-64
2021/09/22 02:49:40;;;;;;;18.13;11.23;;;;;;;;;;5011989;28;20416;-64
2021/09/22 02:52:07;;;;;;;15.90;12.00;;;;;;;;;;5006621;28;20442;-64
2021/09/22 02:54:33;;;;;;;15.73;10.43;;;;;;;;;;5014505;28;20435;-63
2021/09/22 02:56:59;;;;;;;16.33;11.17;;;;;;;;;;5015442;28;20404;-64
2021/09/22 02:59:25;;;;;;;15.60;10.50;;;;;;;;;;5012188;28;20465;-64
2021/09/22 03:01:51;;;;;;;13.00;9.73;;;;;;;;;;5014793;28;20952;-63
2021/09/22 03:04:17;;;;;;;15.57;10.57;;;;;;;;;;5014145;28;20756;-63
2021/09/22 03:06:43;;;;;;;19.33;11.27;;;;;;;;;;5014524;28;20418;-62
2021/09/22 03:09:10;;;;;;;19.50;12.17;;;;;;;;;;5014255;28;20400;-62
2021/09/22 03:11:36;;;;;;;16.67;10.87;;;;;;;;;;5013185;28;20447;-62
2021/09/22 03:14:02;;;;;;;17.17;12.20;;;;;;;;;;5012986;28;20406;-61
2021/09/22 03:16:31;;;;;;;20.30;12.33;;;;;;;;;;4995825;28;20482;-62
2021/09/22 03:18:58;;;;;;;15.20;11.40;;;;;;;;;;4994373;28;20823;-63
2021/09/22 03:21:24;;;;;;;19.00;12.33;;;;;;;;;;5001632;28;20495;-62
2021/09/22 03:23:50;;;;;;;18.27;12.33;;;;;;;;;;5000841;28;20482;-61
2021/09/22 03:26:16;;;;;;;19.47;14.07;;;;;;;;;;5009900;28;20423;-63
2021/09/22 03:28:42;;;;;;;17.03;11.93;;;;;;;;;;5014568;28;20900;-63
2021/09/22 03:31:08;;;;;;;16.93;12.90;;;;;;;;;;5012683;28;20456;-63
2021/09/22 03:33:34;;;;;;;23.27;13.80;;;;;;;;;;5015178;28;20404;-62
2021/09/22 03:36:00;;;;;;;21.20;12.90;;;;;;;;;;5001127;28;20447;-63
2021/09/22 03:38:26;;;;;;;19.60;12.30;;;;;;;;;;4995200;28;20487;-62
2021/09/22 03:40:53;;;;;;;18.90;12.43;;;;;;;;;;5006551;28;20448;-63
2021/09/22 03:43:19;;;;;;;19.53;13.60;;;;;;;;;;5014962;28;20404;-63
2021/09/22 03:45:45;;;;;;;18.97;13.23;;;;;;;;;;5014015;28;20521;-63
2021/09/22 03:48:11;;;;;;;22.47;14.70;;;;;;;;;;5014357;28;20412;-63
2021/09/22 03:50:38;;;;;;;18.23;12.77;;;;;;;;;;5004648;28;20456;-63
2021/09/22 03:53:04;;;;;;;17.20;11.70;;;;;;;;;;4994444;28;20405;-62
2021/09/22 03:55:30;;;;;;;22.00;14.73;;;;;;;;;;5002628;28;20863;-62
2021/09/22 03:57:56;;;;;;;20.90;13.70;;;;;;;;;;5013913;28;20474;-64
2021/09/22 04:00:22;;;;;;;20.37;13.33;;;;;;;;;;5013095;28;20423;-61
2021/09/22 04:02:48;;;;;;;18.13;12.93;;;;;;;;;;5013911;28;20443;-64
2021/09/22 04:05:14;;;;;;;20.83;14.50;;;;;;;;;;5008418;28;20783;-64
2021/09/22 04:07:40;;;;;;;20.53;13.90;;;;;;;;;;5013112;28;20408;-63
2021/09/22 04:10:06;;;;;;;19.30;12.80;;;;;;;;;;5013086;28;20420;-62
2021/09/22 04:12:33;;;;;;;20.30;13.50;;;;;;;;;;5013009;28;20948;-63
2021/09/22 04:14:59;;;;;;;20.07;13.73;;;;;;;;;;5013310;28;20522;-62
2021/09/22 04:17:25;;;;;;;21.67;13.20;;;;;;;;;;5005530;28;20436;-63
2021/09/22 04:19:51;;;;;;;21.17;14.77;;;;;;;;;;4994655;28;20590;-63
2021/09/22 04:22:17;;;;;;;17.80;12.27;;;;;;;;;;5016422;28;20434;-62
2021/09/22 04:24:43;;;;;;;21.50;12.97;;;;;;;;;;5016678;28;20403;-64
2021/09/22 04:27:09;;;;;;;19.27;14.63;;;;;;;;;;5016441;28;20458;-63
2021/09/22 04:29:35;;;;;;;24.30;15.30;;;;;;;;;;5017732;28;20407;-62
2021/09/22 04:32:01;;;;;;;20.10;12.50;;;;;;;;;;5016713;28;20471;-63
2021/09/22 04:34:27;;;;;;;23.90;13.30;;;;;;;;;;5014830;28;20509;-63
2021/09/22 04:36:54;;;;;;;20.73;12.67;;;;;;;;;;5002291;28;20425;-62
2021/09/22 04:39:20;;;;;;;18.33;12.70;;;;;;;;;;4997287;28;20475;-62
2021/09/22 04:41:46;;;;;;;20.63;12.57;;;;;;;;;;4997365;28;20894;-61
2021/09/22 04:44:12;;;;;;;19.33;12.70;;;;;;;;;;5004780;28;20781;-62
2021/09/22 04:46:38;;;;;;;21.60;13.60;;;;;;;;;;5016752;28;20400;-61
2021/09/22 04:49:05;;;;;;;20.40;15.30;;;;;;;;;;5016305;28;20427;-62
2021/09/22 04:51:31;;;;;;;20.73;13.40;;;;;;;;;;5016556;28;20518;-62
2021/09/22 04:53:57;;;;;;;20.40;14.30;;;;;;;;;;5015882;28;20431;-62
2021/09/22 04:56:24;;;;;;;18.27;12.20;;;;;;;;;;5016659;28;20410;-62
2021/09/22 04:58:50;;;;;;;19.73;13.63;;;;;;;;;;5006644;28;20487;-62
2021/09/22 05:01:16;;;;;;;22.33;13.13;;;;;;;;;;5017412;28;20455;-61
2021/09/22 05:03:42;;;;;;;24.30;14.37;;;;;;;;;;5016931;28;20434;-64
2021/09/22 05:06:08;;;;;;;22.83;14.27;;;;;;;;;;5017523;28;20402;-63
2021/09/22 05:08:34;;;;;;;19.23;12.77;;;;;;;;;;5016555;28;20502;-65
2021/09/22 05:11:00;;;;;;;20.20;13.43;;;;;;;;;;5016920;28;20839;-64
2021/09/22 05:13:26;;;;;;;18.00;13.07;;;;;;;;;;5016008;28;20800;-65
2021/09/22 05:15:52;;;;;;;20.10;13.60;;;;;;;;;;5015670;28;20964;-63
2021/09/22 05:18:18;;;;;;;20.13;14.07;;;;;;;;;;5016215;28;20447;-64
2021/09/22 05:20:44;;;;;;;23.40;14.90;;;;;;;;;;5014381;28;20423;-63
2021/09/22 05:23:11;;;;;;;19.80;13.07;;;;;;;;;;5015685;28;20928;-63
2021/09/22 05:25:37;;;;;;;22.47;14.67;;;;;;;;;;5015239;28;20424;-63
2021/09/22 05:28:03;;;;;;;24.73;14.60;;;;;;;;;;5015443;28;20404;-63
2021/09/22 05:30:30;;;;;;;19.43;14.13;;;;;;;;;;4997980;28;20545;-63
2021/09/22 05:32:56;;;;;;;30.30;14.80;;;;;;;;;;4995545;28;20495;-63
2021/09/22 05:35:22;;;;;;;21.83;14.60;;;;;;;;;;5010698;28;20431;-63
2021/09/22 05:37:48;;;;;;;27.20;14.23;;;;;;;;;;5015478;28;20788;-63
2021/09/22 05:40:14;;;;;;;24.40;14.10;;;;;;;;;;4999693;28;20420;-63
2021/09/22 05:42:40;;;;;;;19.90;12.93;;;;;;;;;;4995653;28;20415;-63
2021/09/22 05:45:07;;;;;;;18.00;12.90;;;;;;;;;;5009448;28;20494;-62
2021/09/22 05:47:33;;;;;;;20.70;13.27;;;;;;;;;;5015079;28;20404;-63
2021/09/22 05:49:59;;;;;;;26.43;13.40;;;;;;;;;;5013896;28;20826;-63
2021/09/22 05:52:26;;;;;;;23.70;14.23;;;;;;;;;;5014916;28;20423;-63
2021/09/22 05:54:52;;;;;;;27.53;14.77;;;;;;;;;;5013861;28;20428;-63
2021/09/22 05:57:18;;;;;;;18.90;12.93;;;;;;;;;;5015003;28;20399;-63
2021/09/22 05:59:44;;;;;;;21.20;13.47;;;;;;;;;;5014273;28;20452;-63
2021/09/22 06:02:11;;;;;;;21.40;14.60;;;;;;;;;;5014642;28;20450;-63
2021/09/22 06:04:37;;;;;;;35.57;14.50;;;;;;;;;;5011711;28;20423;-63
2021/09/22 06:07:03;;;;;;;19.70;13.43;;;;;;;;;;5014655;28;20435;-63
2021/09/22 06:09:29;;;;;;;20.73;13.20;;;;;;;;;;5013706;28;20431;-63
2021/09/22 06:11:55;;;;;;;18.53;13.03;;;;;;;;;;5002186;28;20449;-63
2021/09/22 06:14:21;;;;;;;23.43;13.90;;;;;;;;;;4999395;28;20457;-63
2021/09/22 06:16:48;;;;;;;20.93;13.90;;;;;;;;;;5014867;28;20462;-63
2021/09/22 06:19:14;;;;;;;17.70;13.00;;;;;;;;;;5013312;28;20514;-63
2021/09/22 06:21:40;;;;;;;20.77;13.80;;;;;;;;;;5013671;28;20802;-63
2021/09/22 06:24:06;;;;;;;19.83;12.43;;;;;;;;;;5010900;28;20494;-63
2021/09/22 06:26:33;;;;;;;23.80;14.67;;;;;;;;;;4994813;28;20439;-63
2021/09/22 06:28:59;;;;;;;19.80;14.03;;;;;;;;;;4996174;28;20908;-63
2021/09/22 06:31:25;;;;;;;22.63;13.40;;;;;;;;;;5014606;28;20423;-63
2021/09/22 06:33:51;;;;;;;17.10;13.03;;;;;;;;;;5013178;28;20399;-63
2021/09/22 06:36:17;;;;;;;18.57;13.07;;;;;;;;;;5012747;28;20427;-63
2021/09/22 06:38:43;;;;;;;19.80;14.03;;;;;;;;;;4996220;28;20448;-63
2021/09/22 06:41:10;;;;;;;22.43;14.30;;;;;;;;;;5025641;28;20456;-63
2021/09/22 06:43:36;;;;;;;19.17;12.23;;;;;;;;;;4996605;28;20409;-63
2021/09/22 06:46:02;;;;;;;18.50;13.00;;;;;;;;;;5013472;28;20469;-63
2021/09/22 06:48:28;;;;;;;19.00;12.50;;;;;;;;;;5014862;28;20430;-63
2021/09/22 06:50:54;;;;;;;20.93;15.20;;;;;;;;;;5005407;28;20834;-63
2021/09/22 06:53:20;;;;;;;29.63;13.20;;;;;;;;;;5011089;28;20439;-64
2021/09/22 06:55:47;;;;;;;22.17;12.73;;;;;;;;;;5009575;28;20420;-64
2021/09/22 06:58:13;;;;;;;20.00;12.83;;;;;;;;;;5006758;28;20450;-65
2021/09/22 07:00:39;;;;;;;22.73;14.27;;;;;;;;;;5009147;28;20511;-64
2021/09/22 07:03:15;;;;;;;19.87;12.77;;;;;;;;;;5010548;28;20420;-64
2021/09/22 07:05:44;;;;;;;17.43;11.23;;;;;;;;;;5016841;28;20423;-65
2021/09/22 07:08:11;;;;;;;16.27;12.60;;;;;;;;;;5015092;28;20502;-64
2021/09/22 07:10:37;;;;;;;15.20;11.40;;;;;;;;;;5017989;28;20421;-64
2021/09/22 07:13:04;;;;;;;18.80;12.77;;;;;;;;;;5017844;28;20766;-65
2021/09/22 07:15:30;;;;;;;17.60;11.60;;;;;;;;;;5012689;28;20455;-64
2021/09/22 07:17:56;;;;;;;19.20;12.27;;;;;;;;;;5016599;28;20483;-63
2021/09/22 07:20:22;;;;;;;17.00;12.13;;;;;;;;;;5023083;28;20829;-64
2021/09/22 07:22:48;;;;;;;19.13;12.53;;;;;;;;;;5018469;28;20434;-63
2021/09/22 07:25:15;;;;;;;12.57;10.57;;;;;;;;;;5016106;28;20764;-65
2021/09/22 07:27:41;;;;;;;18.10;11.80;;;;;;;;;;5024487;28;20410;-63
2021/09/22 07:30:08;;;;;;;14.70;10.77;;;;;;;;;;5022944;28;20424;-64
2021/09/22 07:32:34;;;;;;;18.30;10.50;;;;;;;;;;5023883;28;20454;-63
2021/09/22 07:35:00;;;;;;;17.77;12.50;;;;;;;;;;5019728;28;20448;-63
2021/09/22 07:37:28;;;;;;;15.17;10.47;;;;;;;;;;5020482;28;20419;-64
2021/09/22 07:39:54;;;;;;;13.40;9.53;;;;;;;;;;5017259;28;20451;-65
2021/09/22 07:42:21;;;;;;;19.70;11.50;;;;;;;;;;5026351;28;20445;-65
2021/09/22 07:44:49;;;;;;;12.93;9.10;;;;;;;;;;5015867;28;20427;-63
2021/09/22 07:47:15;;;;;;;16.00;10.30;;;;;;;;;;5031150;28;20443;-62
2021/09/22 07:49:42;;;;;;;12.27;9.40;;;;;;;;;;5018130;28;20415;-64
2021/09/22 07:52:10;;;;;;;14.07;10.50;;;;;;;;;;5029811;28;20439;-65
2021/09/22 07:54:36;;;;;;;14.77;10.40;;;;;;;;;;5017322;28;20456;-65
2021/09/22 07:57:02;;;;;;;13.47;10.57;;;;;;;;;;5006712;28;20454;-65
2021/09/22 07:59:29;;;;;;;16.37;10.07;;;;;;;;;;4998177;28;20439;-65
2021/09/22 08:01:55;;;;;;;13.07;9.87;;;;;;;;;;5014468;28;20467;-65
2021/09/22 08:04:21;;;;;;;15.57;10.33;;;;;;;;;;5022236;28;20423;-64
2021/09/22 08:06:47;;;;;;;13.67;9.70;;;;;;;;;;5022697;28;20927;-64
2021/09/22 08:09:13;;;;;;;11.80;9.53;;;;;;;;;;5027980;28;21097;-65
2021/09/22 08:11:40;;;;;;;13.57;9.37;;;;;;;;;;5017584;28;20555;-65
2021/09/22 08:14:06;;;;;;;12.10;8.57;;;;;;;;;;5015252;28;20444;-65
2021/09/22 08:16:32;;;;;;;15.00;9.67;;;;;;;;;;5016647;28;20455;-64
2021/09/22 08:18:58;;;;;;;13.20;9.67;;;;;;;;;;5022842;28;20886;-64
2021/09/22 08:21:24;;;;;;;12.03;9.10;;;;;;;;;;5017126;28;20735;-64
2021/09/22 08:23:50;;;;;;;13.80;8.30;;;;;;;;;;5016934;28;20416;-65
2021/09/22 08:26:16;;;;;;;10.80;7.80;;;;;;;;;;5020795;28;20948;-64
2021/09/22 08:28:42;;;;;;;12.30;9.27;;;;;;;;;;5025611;28;20775;-66
2021/09/22 08:31:08;;;;;;;13.70;9.00;;;;;;;;;;5022232;28;20442;-64
2021/09/22 08:33:34;;;;;;;13.53;8.30;;;;;;;;;;5025674;28;20422;-65
2021/09/22 08:36:01;;;;;;;13.60;9.47;;;;;;;;;;5017286;28;20562;-65
2021/09/22 08:38:27;;;;;;;9.90;8.63;;;;;;;;;;5018551;28;20879;-65
2021/09/22 08:40:53;;;;;;;9.97;8.50;;;;;;;;;;5024762;28;20558;-64
2021/09/22 08:43:25;;;;;;;12.60;7.90;;;;;;;;;;5018275;28;20900;-63
2021/09/22 08:45:52;;;;;;;9.57;7.40;;;;;;;;;;5022202;28;20427;-65
2021/09/22 08:48:18;;;;;;;16.17;9.27;;;;;;;;;;5025501;28;20892;-65
2021/09/22 08:50:45;;;;;;;9.33;7.23;;;;;;;;;;5024184;28;20947;-64
2021/09/22 08:53:11;;;;;;;8.23;7.20;;;;;;;;;;5027704;28;20463;-65
2021/09/22 08:55:37;;;;;;;14.30;7.47;;;;;;;;;;5021828;28;20419;-66
2021/09/22 08:58:03;;;;;;;10.20;7.70;;;;;;;;;;5019208;28;20550;-65
2021/09/22 09:00:29;;;;;;;10.53;7.60;;;;;;;;;;5018462;28;20439;-65
2021/09/22 09:02:55;;;;;;;12.07;7.07;;;;;;;;;;5021016;28;20431;-65
2021/09/22 09:05:22;;;;;;;10.77;7.43;;;;;;;;;;5018602;28;20936;-65
2021/09/22 09:08:14;;;;;;;9.50;7.77;;;;;;;;;;5017559;28;20428;-64
2021/09/22 09:10:40;;;;;;;16.70;14.03;;;;;;;;;;5017413;28;20511;-65
2021/09/22 09:13:08;;;;;;;11.67;7.53;;;;;;;;;;5019628;28;20415;-66
2021/09/22 09:15:39;;;;;;;9.13;6.60;;;;;;;;;;5023817;28;20519;-65
2021/09/22 09:18:12;;;;;;;8.93;6.80;;;;;;;;;;5020555;28;20459;-65
2021/09/22 09:20:38;;;;;;;26.27;7.77;;;;;;;;;;5020729;28;20420;-65
2021/09/22 09:23:05;;;;;;;11.10;6.00;;;;;;;;;;5024040;28;20473;-65
2021/09/22 09:25:35;;;;;;;7.03;5.40;;;;;;;;;;5026500;28;20844;-65
2021/09/22 09:28:15;;;;;;;7.30;6.30;;;;;;;;;;5022047;28;20412;-65
2021/09/22 09:30:44;;;;;;;6.90;4.10;;;;;;;;;;5019447;28;20422;-65
2021/09/22 09:33:10;;;;;;;3.73;3.17;;;;;;;;;;5017152;28;20447;-65
2021/09/22 09:35:36;;;;;;;7.20;5.83;;;;;;;;;;5018528;28;20510;-66
2021/09/22 09:38:02;;;;;;;7.23;5.03;;;;;;;;;;5020785;28;20420;-65
2021/09/22 09:40:32;;;;;;;7.30;5.10;;;;;;;;;;5022624;28;20421;-65
2021/09/22 09:43:09;;;;;;;9.83;4.93;;;;;;;;;;5022809;28;20436;-65
2021/09/22 09:45:39;;;;;;;5.63;4.47;;;;;;;;;;5022358;28;20438;-66
2021/09/22 09:48:11;;;;;;;5.93;4.50;;;;;;;;;;5021923;28;20436;-66
2021/09/22 09:50:38;;;;;;;5.30;4.00;;;;;;;;;;5018169;28;20431;-63
2021/09/22 09:53:04;;;;;;;7.63;4.30;;;;;;;;;;5019015;28;20450;-64
2021/09/22 09:55:33;;;;;;;6.33;4.80;;;;;;;;;;5020816;28;20454;-65
2021/09/22 09:57:59;;;;;;;8.20;5.30;;;;;;;;;;5017546;28;20439;-64
2021/09/22 10:00:43;;;;;;;6.40;4.47;;;;;;;;;;5020716;28;20443;-65
2021/09/22 10:03:13;;;;;;;6.37;4.70;;;;;;;;;;5018813;28;20443;-64
2021/09/22 10:05:39;;;;;;;6.10;3.77;;;;;;;;;;5023758;28;20785;-64
2021/09/22 10:08:06;;;;;;;7.80;5.10;;;;;;;;;;5020801;28;20420;-65
2021/09/22 10:10:32;;;;;;;6.43;4.70;;;;;;;;;;5020385;28;20458;-65
2021/09/22 10:12:59;;;;;;;5.83;3.93;;;;;;;;;;5021550;28;20796;-64
2021/09/22 10:15:29;;;;;;;4.93;3.97;;;;;;;;;;5030483;28;20430;-64
2021/09/22 10:17:56;;;;;;;5.40;3.77;;;;;;;;;;5017429;28;20428;-64
2021/09/22 10:20:22;;;;;;;5.07;3.47;;;;;;;;;;5019819;28;20508;-65
2021/09/22 10:22:48;;;;;;;5.70;3.40;;;;;;;;;;5021510;28;20452;-64
2021/09/22 10:25:18;;;;;;;4.27;3.20;;;;;;;;;;5021685;28;20415;-64
2021/09/22 10:27:47;;;;;;;6.87;5.03;;;;;;;;;;5018834;28;20538;-64
2021/09/22 10:30:15;;;;;;;5.47;4.10;;;;;;;;;;5017155;28;20424;-65
2021/09/22 10:32:41;;;;;;;3.80;3.20;;;;;;;;;;5021326;28;21000;-64
2021/09/22 10:35:25;;;;;;;5.77;3.83;;;;;;;;;;5038961;28;20878;-64
2021/09/22 10:37:52;;;;;;;5.80;4.17;;;;;;;;;;5027951;28;20424;-64
2021/09/22 10:40:18;;;;;;;7.07;4.40;;;;;;;;;;5017563;28;20408;-62
2021/09/22 10:42:45;;;;;;;5.63;3.60;;;;;;;;;;5016977;28;20530;-63
2021/09/22 10:45:15;;;;;;;5.00;3.90;;;;;;;;;;5030320;28;20445;-63
2021/09/22 10:47:41;;;;;;;10.13;4.13;;;;;;;;;;5019669;28;20416;-64
2021/09/22 10:50:08;;;;;;;10.03;5.10;;;;;;;;;;5033341;28;20441;-65
2021/09/22 10:52:37;;;;;;;6.57;5.13;;;;;;;;;;5018433;28;20459;-65
2021/09/22 10:55:06;;;;;;;8.63;5.47;;;;;;;;;;5018967;28;20468;-65
2021/09/22 10:57:32;;;;;;;8.70;5.40;;;;;;;;;;5008082;28;20438;-64
2021/09/22 11:00:12;;;;;;;8.40;4.67;;;;;;;;;;5021366;28;20455;-64
2021/09/22 11:02:45;;;;;;;5.63;4.40;;;;;;;;;;5015162;28;20455;-63
2021/09/22 11:05:35;;;;;;;6.60;3.90;;;;;;;;;;5012635;28;20435;-63
2021/09/22 11:08:03;;;;;;;5.70;4.07;;;;;;;;;;5004353;28;20424;-63
2021/09/22 11:10:43;;;;;;;5.20;3.60;;;;;;;;;;5013196;28;20437;-63
2021/09/22 11:13:26;;;;;;;5.50;3.93;;;;;;;;;;5006765;28;20432;-63
2021/09/22 11:15:53;;;;;;;6.10;4.27;;;;;;;;;;5022399;28;20422;-63
2021/09/22 11:18:20;;;;;;;6.43;4.37;;;;;;;;;;5015708;28;20458;-63
2021/09/22 11:20:56;;;;;;;8.00;5.30;;;;;;;;;;5011576;28;20462;-63
2021/09/22 11:23:22;;;;;;;7.80;5.50;;;;;;;;;;5012012;28;20506;-63
2021/09/22 11:25:49;;;;;;;10.30;5.77;;;;;;;;;;5022221;28;20776;-63
2021/09/22 11:28:48;;;;;;;6.47;5.30;;;;;;;;;;5014501;28;20435;-64
2021/09/22 11:31:14;;;;;;;5.63;4.70;;;;;;;;;;5020860;28;20519;-63
2021/09/22 11:33:40;;;;;;;5.90;4.37;;;;;;;;;;5012547;28;20455;-63
2021/09/22 11:36:07;;;;;;;8.17;5.00;;;;;;;;;;5021187;28;20422;-63
2021/09/22 11:38:37;;;;;;;7.70;6.10;;;;;;;;;;5008545;28;20460;-63
2021/09/22 11:41:05;;;;;;;5.40;4.50;;;;;;;;;;5019899;28;20467;-63
2021/09/22 11:43:31;;;;;;;9.53;6.37;;;;;;;;;;5010803;28;20439;-63
2021/09/22 11:46:02;;;;;;;8.33;5.17;;;;;;;;;;5011523;28;20916;-63
2021/09/22 11:48:30;;;;;;;7.90;5.83;;;;;;;;;;5017172;28;20426;-63
2021/09/22 11:50:56;;;;;;;5.27;4.47;;;;;;;;;;5013793;28;20470;-63
2021/09/22 11:53:24;;;;;;;8.17;6.03;;;;;;;;;;5012996;28;20869;-63
2021/09/22 11:55:51;;;;;;;7.10;5.17;;;;;;;;;;5015060;28;20426;-63
2021/09/22 11:58:18;;;;;;;7.97;5.60;;;;;;;;;;5009705;28;20471;-63
2021/09/22 12:00:44;;;;;;;7.37;5.97;;;;;;;;;;5015611;28;20415;-64
2021/09/22 12:03:12;;;;;;;6.80;4.90;;;;;;;;;;5012819;28;20505;-63
2021/09/22 12:05:39;;;;;;;6.53;4.20;;;;;;;;;;5017449;28;20478;-63
2021/09/22 12:08:06;;;;;;;6.20;4.00;;;;;;;;;;5011102;28;20438;-63
2021/09/22 12:10:32;;;;;;;6.70;4.00;;;;;;;;;;5009261;28;20426;-63
2021/09/22 12:13:05;;;;;;;8.03;5.17;;;;;;;;;;5016443;28;20455;-63
2021/09/22 12:15:32;;;;;;;6.77;4.67;;;;;;;;;;5011571;28;20523;-63
2021/09/22 12:17:58;;;;;;;7.27;4.67;;;;;;;;;;5017066;28;20438;-63
2021/09/22 12:20:24;;;;;;;8.30;4.50;;;;;;;;;;5013980;28;20568;-63
2021/09/22 12:22:59;;;;;;;5.67;3.83;;;;;;;;;;5019437;28;20451;-63
2021/09/22 12:25:25;;;;;;;6.37;4.87;;;;;;;;;;5022782;28;20480;-63
2021/09/22 12:27:51;;;;;;;5.87;4.40;;;;;;;;;;5009977;28;20422;-63
2021/09/22 12:30:18;;;;;;;10.97;5.07;;;;;;;;;;5032371;28;20427;-65
2021/09/22 12:32:51;;;;;;;5.00;2.93;;;;;;;;;;5012936;28;20451;-63
2021/09/22 12:35:17;;;;;;;6.60;3.50;;;;;;;;;;5015170;28;20435;-63
2021/09/22 12:37:43;;;;;;;5.30;3.60;;;;;;;;;;5007048;28;20422;-63
2021/09/22 12:40:11;;;;;;;4.20;3.37;;;;;;;;;;5006732;28;20498;-63
2021/09/22 12:42:45;;;;;;;4.50;3.03;;;;;;;;;;5014539;28;20495;-63
2021/09/22 12:45:12;;;;;;;4.10;3.03;;;;;;;;;;5017392;28;20447;-63
2021/09/22 12:47:49;;;;;;;6.10;3.13;;;;;;;;;;5016810;28;20551;-63
2021/09/22 12:50:16;;;;;;;5.77;3.30;;;;;;;;;;5012020;28;20431;-63
2021/09/22 12:52:43;;;;;;;5.03;3.47;;;;;;;;;;5016505;28;20511;-63
2021/09/22 12:55:13;;;;;;;6.00;3.37;;;;;;;;;;5019917;28;20438;-63
2021/09/22 12:57:46;;;;;;;4.70;3.20;;;;;;;;;;5018505;28;20606;-63
2021/09/22 13:00:31;;;;;;;5.33;3.30;;;;;;;;;;5016715;28;20466;-63
2021/09/22 13:03:16;;;;;;;5.47;2.90;;;;;;;;;;5012538;28;20474;-63
2021/09/22 13:05:45;;;;;;;3.97;2.57;;;;;;;;;;5009532;28;20431;-63
2021/09/22 13:08:13;;;;;;;5.47;3.50;;;;;;;;;;5013646;28;20966;-67
2021/09/22 13:10:57;;;;;;;3.77;2.53;;;;;;;;;;5020034;28;20435;-62
2021/09/22 13:13:24;;;;;;;4.07;3.20;;;;;;;;;;5018701;28;20516;-63
2021/09/22 13:15:54;;;;;;;3.20;2.30;;;;;;;;;;5016970;28;20438;-63
2021/09/22 13:18:24;;;;;;;6.80;3.00;;;;;;;;;;5020748;28;21795;-63
2021/09/22 13:20:50;;;;;;;6.37;3.60;;;;;;;;;;5008862;28;20461;-63
2021/09/22 13:23:20;;;;;;;5.87;3.63;;;;;;;;;;5015959;28;20419;-63
2021/09/22 13:25:46;;;;;;;7.00;2.47;;;;;;;;;;5014504;28;20521;-63
2021/09/22 13:28:12;;;;;;;3.67;3.03;;;;;;;;;;5018311;28;20450;-63
2021/09/22 13:30:38;;;;;;;5.50;3.50;;;;;;;;;;5017922;28;20487;-62
2021/09/22 13:33:04;;;;;;;4.47;2.97;;;;;;;;;;5016582;28;20481;-63
2021/09/22 13:35:30;;;;;;;3.60;2.83;;;;;;;;;;5006656;28;20521;-62
2021/09/22 13:37:56;;;;;;;4.03;2.70;;;;;;;;;;5006334;28;20443;-63
2021/09/22 13:40:22;;;;;;;3.60;2.77;;;;;;;;;;5014968;28;20877;-63
2021/09/22 13:42:48;;;;;;;4.20;2.90;;;;;;;;;;5017850;28;20483;-63
2021/09/22 13:45:15;;;;;;;4.57;2.90;;;;;;;;;;5019001;28;21648;-64
2021/09/22 13:47:41;;;;;;;5.20;3.73;;;;;;;;;;5007869;28;20421;-63
2021/09/22 13:50:07;;;;;;;3.70;2.57;;;;;;;;;;5012067;28;20452;-63
2021/09/22 13:52:33;;;;;;;6.37;3.70;;;;;;;;;;5008741;28;20459;-63
2021/09/22 13:54:59;;;;;;;4.53;3.20;;;;;;;;;;5016851;28;20422;-64
2021/09/22 13:57:25;;;;;;;5.10;2.60;;;;;;;;;;5017720;28;20459;-64
2021/09/22 13:59:51;;;;;;;4.80;3.17;;;;;;;;;;5014159;28;20476;-66
2021/09/22 14:02:17;;;;;;;3.80;2.60;;;;;;;;;;5008564;28;20549;-63
2021/09/22 14:04:43;;;;;;;3.77;2.40;;;;;;;;;;5013171;28;20924;-64
2021/09/22 14:07:10;;;;;;;5.67;3.73;;;;;;;;;;5011955;28;20777;-63
2021/09/22 14:09:36;;;;;;;3.90;2.40;;;;;;;;;;5012698;28;20428;-63
2021/09/22 14:12:02;;;;;;;4.50;2.50;;;;;;;;;;5020328;28;20580;-63
2021/09/22 14:14:28;;;;;;;3.97;2.97;;;;;;;;;;5014526;28;21202;-63
2021/09/22 14:16:54;;;;;;;3.70;2.53;;;;;;;;;;5014062;28;20434;-63
2021/09/22 14:19:20;;;;;;;6.20;2.90;;;;;;;;;;5016685;28;20463;-63
2021/09/22 14:21:46;;;;;;;5.50;2.60;;;;;;;;;;5011045;28;20497;-63
2021/09/22 14:24:13;;;;;;;3.73;2.90;;;;;;;;;;5016059;28;20415;-63
2021/09/22 14:26:39;;;;;;;5.00;2.57;;;;;;;;;;5009414;28;20440;-63
2021/09/22 14:29:05;;;;;;;4.50;2.80;;;;;;;;;;5028225;28;20742;-63